sensor_id;sensor_type;location;lat;lon;timestamp;temperature;humidity
38488;DHT22;57384;51.986;4.458;2024-02-23T00:01:45;7.90;90.20
38488;DHT22;57384;51.986;4.458;2024-02-23T00:04:45;8.00;90.20
38488;DHT22;57384;51.986;4.458;2024-02-23T00:07:32;7.90;90.20
38488;DHT22;57384;51.986;4.458;2024-02-23T00:10:19;7.90;90.10
38488;DHT22;57384;51.986;4.458;2024-02-23T00:13:06;7.90;90.20
38488;DHT22;57384;51.986;4.458;2024-02-23T00:15:59;7.90;90.10
38488;DHT22;57384;51.986;4.458;2024-02-23T00:19:01;7.90;90.20
38488;DHT22;57384;51.986;4.458;2024-02-23T00:21:51;7.80;90.10
38488;DHT22;57384;51.986;4.458;2024-02-23T00:24:46;7.80;90.10
38488;DHT22;57384;51.986;4.458;2024-02-23T00:27:38;7.80;90.10
38488;DHT22;57384;51.986;4.458;2024-02-23T00:30:24;7.80;90.10
38488;DHT22;57384;51.986;4.458;2024-02-23T00:33:09;7.70;90.10
38488;DHT22;57384;51.986;4.458;2024-02-23T00:35:53;7.80;90.10
38488;DHT22;57384;51.986;4.458;2024-02-23T00:38:38;7.80;90.10
38488;DHT22;57384;51.986;4.458;2024-02-23T00:41:25;7.80;90.10
38488;DHT22;57384;51.986;4.458;2024-02-23T00:44:09;7.70;90.10
38488;DHT22;57384;51.986;4.458;2024-02-23T00:46:56;7.70;90.10
38488;DHT22;57384;51.986;4.458;2024-02-23T00:49:40;7.70;90.10
38488;DHT22;57384;51.986;4.458;2024-02-23T00:52:24;7.70;90.10
38488;DHT22;57384;51.986;4.458;2024-02-23T00:55:08;7.70;90.10
38488;DHT22;57384;51.986;4.458;2024-02-23T00:57:55;7.60;90.10
38488;DHT22;57384;51.986;4.458;2024-02-23T01:00:40;7.60;90.40
38488;DHT22;57384;51.986;4.458;2024-02-23T01:03:25;7.60;90.10
38488;DHT22;57384;51.986;4.458;2024-02-23T01:06:12;7.60;90.10
38488;DHT22;57384;51.986;4.458;2024-02-23T01:08:56;7.60;90.10
38488;DHT22;57384;51.986;4.458;2024-02-23T01:11:40;7.50;90.10
38488;DHT22;57384;51.986;4.458;2024-02-23T01:14:24;7.50;90.10
38488;DHT22;57384;51.986;4.458;2024-02-23T01:17:09;7.40;90.10
38488;DHT22;57384;51.986;4.458;2024-02-23T01:19:53;7.50;90.20
38488;DHT22;57384;51.986;4.458;2024-02-23T01:22:37;7.40;90.10
38488;DHT22;57384;51.986;4.458;2024-02-23T01:25:21;7.40;90.10
38488;DHT22;57384;51.986;4.458;2024-02-23T01:28:11;7.40;90.10
38488;DHT22;57384;51.986;4.458;2024-02-23T01:30:56;7.30;90.10
38488;DHT22;57384;51.986;4.458;2024-02-23T01:33:40;7.30;90.10
38488;DHT22;57384;51.986;4.458;2024-02-23T01:36:29;7.30;90.10
38488;DHT22;57384;51.986;4.458;2024-02-23T01:39:16;7.30;90.10
38488;DHT22;57384;51.986;4.458;2024-02-23T01:42:00;7.20;90.10
38488;DHT22;57384;51.986;4.458;2024-02-23T01:44:48;7.20;90.10
38488;DHT22;57384;51.986;4.458;2024-02-23T01:47:35;7.20;90.10
38488;DHT22;57384;51.986;4.458;2024-02-23T01:50:32;7.20;90.10
38488;DHT22;57384;51.986;4.458;2024-02-23T01:53:17;7.10;90.10
38488;DHT22;57384;51.986;4.458;2024-02-23T01:56:04;7.10;90.10
38488;DHT22;57384;51.986;4.458;2024-02-23T01:58:48;7.10;90.10
38488;DHT22;57384;51.986;4.458;2024-02-23T02:01:46;7.00;90.10
38488;DHT22;57384;51.986;4.458;2024-02-23T02:04:30;7.00;90.10
38488;DHT22;57384;51.986;4.458;2024-02-23T02:07:20;7.00;90.10
38488;DHT22;57384;51.986;4.458;2024-02-23T02:10:09;6.90;90.00
38488;DHT22;57384;51.986;4.458;2024-02-23T02:12:53;6.90;90.10
38488;DHT22;57384;51.986;4.458;2024-02-23T02:15:43;6.90;90.10
38488;DHT22;57384;51.986;4.458;2024-02-23T02:18:29;6.90;90.10
38488;DHT22;57384;51.986;4.458;2024-02-23T02:21:25;6.90;90.20
38488;DHT22;57384;51.986;4.458;2024-02-23T02:24:11;6.90;90.10
38488;DHT22;57384;51.986;4.458;2024-02-23T02:27:03;6.80;90.10
38488;DHT22;57384;51.986;4.458;2024-02-23T02:29:50;6.80;90.10
38488;DHT22;57384;51.986;4.458;2024-02-23T02:32:37;6.90;90.10
38488;DHT22;57384;51.986;4.458;2024-02-23T02:35:41;6.80;90.10
38488;DHT22;57384;51.986;4.458;2024-02-23T02:38:28;6.80;90.10
38488;DHT22;57384;51.986;4.458;2024-02-23T02:41:12;6.80;90.30
38488;DHT22;57384;51.986;4.458;2024-02-23T02:43:56;6.80;90.00
38488;DHT22;57384;51.986;4.458;2024-02-23T02:46:51;6.80;90.00
38488;DHT22;57384;51.986;4.458;2024-02-23T02:49:35;6.80;90.10
38488;DHT22;57384;51.986;4.458;2024-02-23T02:52:20;6.70;90.00
38488;DHT22;57384;51.986;4.458;2024-02-23T02:55:06;6.70;90.00
38488;DHT22;57384;51.986;4.458;2024-02-23T02:57:51;6.80;90.00
38488;DHT22;57384;51.986;4.458;2024-02-23T03:00:35;6.70;90.00
38488;DHT22;57384;51.986;4.458;2024-02-23T03:03:21;6.70;90.00
38488;DHT22;57384;51.986;4.458;2024-02-23T03:06:06;6.70;90.00
38488;DHT22;57384;51.986;4.458;2024-02-23T03:08:53;6.70;90.00
38488;DHT22;57384;51.986;4.458;2024-02-23T03:11:37;6.70;90.00
38488;DHT22;57384;51.986;4.458;2024-02-23T03:14:22;6.70;90.00
38488;DHT22;57384;51.986;4.458;2024-02-23T03:17:07;6.70;90.00
38488;DHT22;57384;51.986;4.458;2024-02-23T03:19:55;6.70;90.00
38488;DHT22;57384;51.986;4.458;2024-02-23T03:22:39;6.70;90.00
38488;DHT22;57384;51.986;4.458;2024-02-23T03:25:25;6.70;90.00
38488;DHT22;57384;51.986;4.458;2024-02-23T03:28:10;6.70;90.00
38488;DHT22;57384;51.986;4.458;2024-02-23T03:30:54;6.60;90.00
38488;DHT22;57384;51.986;4.458;2024-02-23T03:33:43;6.60;90.00
38488;DHT22;57384;51.986;4.458;2024-02-23T03:36:28;6.60;90.00
38488;DHT22;57384;51.986;4.458;2024-02-23T03:39:12;6.60;90.00
38488;DHT22;57384;51.986;4.458;2024-02-23T03:41:58;6.60;90.00
38488;DHT22;57384;51.986;4.458;2024-02-23T03:44:43;6.60;90.00
38488;DHT22;57384;51.986;4.458;2024-02-23T03:47:42;6.60;90.00
38488;DHT22;57384;51.986;4.458;2024-02-23T03:50:26;6.60;90.00
38488;DHT22;57384;51.986;4.458;2024-02-23T03:53:18;6.60;90.00
38488;DHT22;57384;51.986;4.458;2024-02-23T03:56:03;6.50;90.00
38488;DHT22;57384;51.986;4.458;2024-02-23T03:58:57;6.60;90.00
38488;DHT22;57384;51.986;4.458;2024-02-23T04:01:44;6.50;90.00
38488;DHT22;57384;51.986;4.458;2024-02-23T04:04:29;6.50;90.00
38488;DHT22;57384;51.986;4.458;2024-02-23T04:07:13;6.50;90.00
38488;DHT22;57384;51.986;4.458;2024-02-23T04:09:58;6.50;90.00
38488;DHT22;57384;51.986;4.458;2024-02-23T04:12:43;6.50;90.00
38488;DHT22;57384;51.986;4.458;2024-02-23T04:15:30;6.40;90.00
38488;DHT22;57384;51.986;4.458;2024-02-23T04:18:14;6.40;90.00
38488;DHT22;57384;51.986;4.458;2024-02-23T04:20:58;6.40;90.00
38488;DHT22;57384;51.986;4.458;2024-02-23T04:23:46;6.30;90.00
38488;DHT22;57384;51.986;4.458;2024-02-23T04:26:34;6.40;90.00
38488;DHT22;57384;51.986;4.458;2024-02-23T04:29:20;6.40;90.00
38488;DHT22;57384;51.986;4.458;2024-02-23T04:32:05;6.40;90.00
38488;DHT22;57384;51.986;4.458;2024-02-23T04:38:03;6.30;90.00
38488;DHT22;57384;51.986;4.458;2024-02-23T04:40:48;6.30;90.00
38488;DHT22;57384;51.986;4.458;2024-02-23T04:43:40;6.30;90.00
38488;DHT22;57384;51.986;4.458;2024-02-23T04:46:24;6.30;90.00
38488;DHT22;57384;51.986;4.458;2024-02-23T04:49:08;6.30;90.00
38488;DHT22;57384;51.986;4.458;2024-02-23T04:51:54;6.30;90.00
38488;DHT22;57384;51.986;4.458;2024-02-23T04:54:38;6.30;90.00
38488;DHT22;57384;51.986;4.458;2024-02-23T04:57:25;6.30;90.00
38488;DHT22;57384;51.986;4.458;2024-02-23T05:00:13;6.30;90.00
38488;DHT22;57384;51.986;4.458;2024-02-23T05:02:59;6.30;90.00
38488;DHT22;57384;51.986;4.458;2024-02-23T05:05:47;6.30;90.00
38488;DHT22;57384;51.986;4.458;2024-02-23T05:08:34;6.30;90.00
38488;DHT22;57384;51.986;4.458;2024-02-23T05:11:18;6.30;90.00
38488;DHT22;57384;51.986;4.458;2024-02-23T05:14:02;6.30;89.90
38488;DHT22;57384;51.986;4.458;2024-02-23T05:16:48;6.40;90.00
38488;DHT22;57384;51.986;4.458;2024-02-23T05:19:32;6.30;89.90
38488;DHT22;57384;51.986;4.458;2024-02-23T05:22:17;6.30;89.90
38488;DHT22;57384;51.986;4.458;2024-02-23T05:25:01;6.30;89.90
38488;DHT22;57384;51.986;4.458;2024-02-23T05:27:45;6.30;89.90
38488;DHT22;57384;51.986;4.458;2024-02-23T05:30:29;6.40;90.00
38488;DHT22;57384;51.986;4.458;2024-02-23T05:33:16;6.40;90.00
38488;DHT22;57384;51.986;4.458;2024-02-23T05:36:00;6.40;90.00
38488;DHT22;57384;51.986;4.458;2024-02-23T05:38:44;6.40;89.90
38488;DHT22;57384;51.986;4.458;2024-02-23T05:41:28;6.40;89.90
38488;DHT22;57384;51.986;4.458;2024-02-23T05:44:12;6.40;89.90
38488;DHT22;57384;51.986;4.458;2024-02-23T05:46:56;6.40;89.90
38488;DHT22;57384;51.986;4.458;2024-02-23T05:49:43;6.50;90.00
38488;DHT22;57384;51.986;4.458;2024-02-23T05:52:27;6.40;89.90
38488;DHT22;57384;51.986;4.458;2024-02-23T05:55:11;6.40;89.90
38488;DHT22;57384;51.986;4.458;2024-02-23T05:57:58;6.50;89.90
38488;DHT22;57384;51.986;4.458;2024-02-23T06:00:42;6.50;89.90
38488;DHT22;57384;51.986;4.458;2024-02-23T06:03:26;6.50;89.90
38488;DHT22;57384;51.986;4.458;2024-02-23T06:06:12;6.50;89.90
38488;DHT22;57384;51.986;4.458;2024-02-23T06:08:56;6.50;90.00
38488;DHT22;57384;51.986;4.458;2024-02-23T06:11:40;6.50;89.90
38488;DHT22;57384;51.986;4.458;2024-02-23T06:14:24;6.50;89.90
38488;DHT22;57384;51.986;4.458;2024-02-23T06:17:08;6.60;90.00
38488;DHT22;57384;51.986;4.458;2024-02-23T06:19:52;6.60;90.00
38488;DHT22;57384;51.986;4.458;2024-02-23T06:22:36;6.60;90.00
38488;DHT22;57384;51.986;4.458;2024-02-23T06:25:20;6.60;90.00
38488;DHT22;57384;51.986;4.458;2024-02-23T06:28:05;6.60;90.00
38488;DHT22;57384;51.986;4.458;2024-02-23T06:30:49;6.60;89.90
38488;DHT22;57384;51.986;4.458;2024-02-23T06:33:33;6.60;89.90
38488;DHT22;57384;51.986;4.458;2024-02-23T06:36:18;6.60;90.00
38488;DHT22;57384;51.986;4.458;2024-02-23T06:39:02;6.60;90.00
38488;DHT22;57384;51.986;4.458;2024-02-23T06:41:46;6.60;89.90
38488;DHT22;57384;51.986;4.458;2024-02-23T06:44:31;6.60;89.90
38488;DHT22;57384;51.986;4.458;2024-02-23T06:47:16;6.60;89.90
38488;DHT22;57384;51.986;4.458;2024-02-23T06:50:00;6.60;90.00
38488;DHT22;57384;51.986;4.458;2024-02-23T06:52:44;6.60;89.90
38488;DHT22;57384;51.986;4.458;2024-02-23T06:55:29;6.60;89.90
38488;DHT22;57384;51.986;4.458;2024-02-23T06:58:15;6.70;89.90
38488;DHT22;57384;51.986;4.458;2024-02-23T07:00:59;6.70;89.90
38488;DHT22;57384;51.986;4.458;2024-02-23T07:03:43;6.70;89.90
38488;DHT22;57384;51.986;4.458;2024-02-23T07:06:29;6.70;89.90
38488;DHT22;57384;51.986;4.458;2024-02-23T07:09:14;6.70;89.90
38488;DHT22;57384;51.986;4.458;2024-02-23T07:11:58;6.70;89.90
38488;DHT22;57384;51.986;4.458;2024-02-23T07:14:42;6.70;89.90
38488;DHT22;57384;51.986;4.458;2024-02-23T07:17:26;6.70;89.90
38488;DHT22;57384;51.986;4.458;2024-02-23T07:20:11;6.70;89.90
38488;DHT22;57384;51.986;4.458;2024-02-23T07:22:55;6.70;89.90
38488;DHT22;57384;51.986;4.458;2024-02-23T07:25:39;6.70;89.90
38488;DHT22;57384;51.986;4.458;2024-02-23T07:28:23;6.70;89.90
38488;DHT22;57384;51.986;4.458;2024-02-23T07:31:07;6.70;89.90
38488;DHT22;57384;51.986;4.458;2024-02-23T07:33:51;6.70;89.90
38488;DHT22;57384;51.986;4.458;2024-02-23T07:36:35;6.70;89.90
38488;DHT22;57384;51.986;4.458;2024-02-23T07:39:20;6.70;89.90
38488;DHT22;57384;51.986;4.458;2024-02-23T07:42:05;6.70;89.90
38488;DHT22;57384;51.986;4.458;2024-02-23T07:44:49;6.70;89.90
38488;DHT22;57384;51.986;4.458;2024-02-23T07:47:34;6.70;89.90
38488;DHT22;57384;51.986;4.458;2024-02-23T07:50:18;6.70;89.90
38488;DHT22;57384;51.986;4.458;2024-02-23T07:53:02;6.70;90.00
38488;DHT22;57384;51.986;4.458;2024-02-23T07:55:46;6.70;90.00
38488;DHT22;57384;51.986;4.458;2024-02-23T07:58:31;6.70;90.00
38488;DHT22;57384;51.986;4.458;2024-02-23T08:01:15;6.70;90.00
38488;DHT22;57384;51.986;4.458;2024-02-23T08:03:59;6.70;90.00
38488;DHT22;57384;51.986;4.458;2024-02-23T08:06:43;6.70;90.20
38488;DHT22;57384;51.986;4.458;2024-02-23T08:09:29;6.70;90.00
38488;DHT22;57384;51.986;4.458;2024-02-23T08:12:13;6.70;90.00
38488;DHT22;57384;51.986;4.458;2024-02-23T08:14:57;6.70;90.00
38488;DHT22;57384;51.986;4.458;2024-02-23T08:17:42;6.70;90.00
38488;DHT22;57384;51.986;4.458;2024-02-23T08:20:26;6.70;90.00
38488;DHT22;57384;51.986;4.458;2024-02-23T08:23:10;6.70;90.00
38488;DHT22;57384;51.986;4.458;2024-02-23T08:25:54;6.70;90.00
38488;DHT22;57384;51.986;4.458;2024-02-23T08:28:38;6.70;90.00
38488;DHT22;57384;51.986;4.458;2024-02-23T08:31:22;6.70;90.00
38488;DHT22;57384;51.986;4.458;2024-02-23T08:34:06;6.70;90.00
38488;DHT22;57384;51.986;4.458;2024-02-23T08:36:50;6.80;90.00
38488;DHT22;57384;51.986;4.458;2024-02-23T08:39:35;6.70;90.00
38488;DHT22;57384;51.986;4.458;2024-02-23T08:42:20;6.70;90.00
38488;DHT22;57384;51.986;4.458;2024-02-23T08:45:04;6.80;90.00
38488;DHT22;57384;51.986;4.458;2024-02-23T08:47:49;6.80;90.00
38488;DHT22;57384;51.986;4.458;2024-02-23T08:50:33;6.80;90.00
38488;DHT22;57384;51.986;4.458;2024-02-23T08:53:17;6.70;90.00
38488;DHT22;57384;51.986;4.458;2024-02-23T08:56:01;6.70;90.00
38488;DHT22;57384;51.986;4.458;2024-02-23T08:58:47;6.80;90.00
38488;DHT22;57384;51.986;4.458;2024-02-23T09:01:31;6.80;90.00
38488;DHT22;57384;51.986;4.458;2024-02-23T09:04:15;6.80;90.00
38488;DHT22;57384;51.986;4.458;2024-02-23T09:06:59;6.80;90.00
38488;DHT22;57384;51.986;4.458;2024-02-23T09:09:44;6.80;90.00
38488;DHT22;57384;51.986;4.458;2024-02-23T09:12:28;6.80;90.00
38488;DHT22;57384;51.986;4.458;2024-02-23T09:15:12;6.90;90.00
38488;DHT22;57384;51.986;4.458;2024-02-23T09:17:58;6.90;90.00
38488;DHT22;57384;51.986;4.458;2024-02-23T09:20:42;6.90;90.00
38488;DHT22;57384;51.986;4.458;2024-02-23T09:23:26;7.00;90.00
38488;DHT22;57384;51.986;4.458;2024-02-23T09:26:11;7.00;90.00
38488;DHT22;57384;51.986;4.458;2024-02-23T09:28:56;7.00;90.20
38488;DHT22;57384;51.986;4.458;2024-02-23T09:31:40;7.00;90.00
38488;DHT22;57384;51.986;4.458;2024-02-23T09:34:25;7.10;90.00
38488;DHT22;57384;51.986;4.458;2024-02-23T09:37:09;7.10;90.00
38488;DHT22;57384;51.986;4.458;2024-02-23T09:39:53;7.10;89.90
38488;DHT22;57384;51.986;4.458;2024-02-23T09:42:38;7.20;89.90
38488;DHT22;57384;51.986;4.458;2024-02-23T09:45:26;7.20;89.90
38488;DHT22;57384;51.986;4.458;2024-02-23T09:48:13;7.20;89.90
38488;DHT22;57384;51.986;4.458;2024-02-23T09:50:59;7.30;89.90
38488;DHT22;57384;51.986;4.458;2024-02-23T09:53:43;7.30;89.90
38488;DHT22;57384;51.986;4.458;2024-02-23T09:56:28;7.40;89.90
38488;DHT22;57384;51.986;4.458;2024-02-23T09:59:13;7.40;89.90
38488;DHT22;57384;51.986;4.458;2024-02-23T10:01:58;7.40;89.80
38488;DHT22;57384;51.986;4.458;2024-02-23T10:04:43;7.50;89.80
38488;DHT22;57384;51.986;4.458;2024-02-23T10:07:27;7.50;89.80
38488;DHT22;57384;51.986;4.458;2024-02-23T10:10:13;7.60;89.80
38488;DHT22;57384;51.986;4.458;2024-02-23T10:12:57;7.60;89.80
38488;DHT22;57384;51.986;4.458;2024-02-23T10:15:43;7.60;89.70
38488;DHT22;57384;51.986;4.458;2024-02-23T10:18:27;7.70;89.70
38488;DHT22;57384;51.986;4.458;2024-02-23T10:21:11;7.70;89.60
38488;DHT22;57384;51.986;4.458;2024-02-23T10:23:55;7.80;89.50
38488;DHT22;57384;51.986;4.458;2024-02-23T10:26:39;8.00;89.50
38488;DHT22;57384;51.986;4.458;2024-02-23T10:29:26;8.00;89.40
38488;DHT22;57384;51.986;4.458;2024-02-23T10:32:14;8.10;89.40
38488;DHT22;57384;51.986;4.458;2024-02-23T10:35:00;8.20;89.30
38488;DHT22;57384;51.986;4.458;2024-02-23T10:37:48;8.30;89.20
38488;DHT22;57384;51.986;4.458;2024-02-23T10:40:33;8.40;89.10
38488;DHT22;57384;51.986;4.458;2024-02-23T10:43:19;8.50;89.00
38488;DHT22;57384;51.986;4.458;2024-02-23T10:46:04;8.60;89.00
38488;DHT22;57384;51.986;4.458;2024-02-23T10:48:54;8.60;89.00
38488;DHT22;57384;51.986;4.458;2024-02-23T10:51:39;8.70;89.00
38488;DHT22;57384;51.986;4.458;2024-02-23T10:54:24;8.80;89.00
38488;DHT22;57384;51.986;4.458;2024-02-23T10:57:08;8.80;89.00
38488;DHT22;57384;51.986;4.458;2024-02-23T10:59:53;8.90;89.10
38488;DHT22;57384;51.986;4.458;2024-02-23T11:02:48;8.90;89.10
38488;DHT22;57384;51.986;4.458;2024-02-23T11:05:34;8.90;89.20
38488;DHT22;57384;51.986;4.458;2024-02-23T11:08:21;9.00;89.10
38488;DHT22;57384;51.986;4.458;2024-02-23T11:11:09;9.00;89.10
38488;DHT22;57384;51.986;4.458;2024-02-23T11:13:56;9.10;89.20
38488;DHT22;57384;51.986;4.458;2024-02-23T11:16:40;9.10;89.20
38488;DHT22;57384;51.986;4.458;2024-02-23T11:19:35;9.10;89.20
38488;DHT22;57384;51.986;4.458;2024-02-23T11:25:10;9.20;89.30
38488;DHT22;57384;51.986;4.458;2024-02-23T11:27:54;9.20;89.40
38488;DHT22;57384;51.986;4.458;2024-02-23T11:30:43;9.30;89.40
38488;DHT22;57384;51.986;4.458;2024-02-23T11:33:28;9.30;89.50
38488;DHT22;57384;51.986;4.458;2024-02-23T11:36:22;9.30;89.50
38488;DHT22;57384;51.986;4.458;2024-02-23T11:39:06;9.30;89.50
38488;DHT22;57384;51.986;4.458;2024-02-23T11:41:54;9.30;89.50
38488;DHT22;57384;51.986;4.458;2024-02-23T11:44:38;9.40;89.50
38488;DHT22;57384;51.986;4.458;2024-02-23T11:47:22;9.40;89.50
38488;DHT22;57384;51.986;4.458;2024-02-23T11:50:08;9.40;89.50
38488;DHT22;57384;51.986;4.458;2024-02-23T11:52:53;9.40;89.50
38488;DHT22;57384;51.986;4.458;2024-02-23T11:55:38;9.50;89.50
38488;DHT22;57384;51.986;4.458;2024-02-23T11:58:22;9.50;89.40
38488;DHT22;57384;51.986;4.458;2024-02-23T12:01:08;9.60;89.40
38488;DHT22;57384;51.986;4.458;2024-02-23T12:03:52;9.60;89.30
38488;DHT22;57384;51.986;4.458;2024-02-23T12:06:40;9.60;89.20
38488;DHT22;57384;51.986;4.458;2024-02-23T12:09:26;9.80;89.40
38488;DHT22;57384;51.986;4.458;2024-02-23T12:11:53;9.70;89.20
38488;DHT22;57384;51.986;4.458;2024-02-23T12:14:21;9.80;89.20
38488;DHT22;57384;51.986;4.458;2024-02-23T12:16:51;9.80;89.20
38488;DHT22;57384;51.986;4.458;2024-02-23T12:19:25;9.90;89.20
38488;DHT22;57384;51.986;4.458;2024-02-23T12:21:52;9.90;89.20
38488;DHT22;57384;51.986;4.458;2024-02-23T12:24:19;10.00;89.10
38488;DHT22;57384;51.986;4.458;2024-02-23T12:26:56;10.10;89.00
38488;DHT22;57384;51.986;4.458;2024-02-23T12:29:24;10.20;88.90
38488;DHT22;57384;51.986;4.458;2024-02-23T12:32:07;10.30;88.80
38488;DHT22;57384;51.986;4.458;2024-02-23T12:34:39;10.40;88.70
38488;DHT22;57384;51.986;4.458;2024-02-23T12:37:20;10.50;88.60
38488;DHT22;57384;51.986;4.458;2024-02-23T12:39:51;10.70;88.50
38488;DHT22;57384;51.986;4.458;2024-02-23T12:42:18;10.80;88.20
38488;DHT22;57384;51.986;4.458;2024-02-23T12:44:45;10.90;88.10
38488;DHT22;57384;51.986;4.458;2024-02-23T12:47:11;11.00;88.00
38488;DHT22;57384;51.986;4.458;2024-02-23T12:49:38;11.10;87.90
38488;DHT22;57384;51.986;4.458;2024-02-23T12:52:06;11.20;87.90
38488;DHT22;57384;51.986;4.458;2024-02-23T12:54:32;11.30;87.80
38488;DHT22;57384;51.986;4.458;2024-02-23T12:57:00;11.20;87.70
38488;DHT22;57384;51.986;4.458;2024-02-23T12:59:27;11.30;87.80
38488;DHT22;57384;51.986;4.458;2024-02-23T13:01:57;11.40;87.90
38488;DHT22;57384;51.986;4.458;2024-02-23T13:04:23;11.40;87.90
38488;DHT22;57384;51.986;4.458;2024-02-23T13:06:50;11.40;87.90
38488;DHT22;57384;51.986;4.458;2024-02-23T13:09:18;11.40;87.90
38488;DHT22;57384;51.986;4.458;2024-02-23T13:11:53;11.40;88.00
38488;DHT22;57384;51.986;4.458;2024-02-23T13:14:30;11.40;87.90
38488;DHT22;57384;51.986;4.458;2024-02-23T13:17:05;11.50;87.80
38488;DHT22;57384;51.986;4.458;2024-02-23T13:19:53;11.40;87.70
38488;DHT22;57384;51.986;4.458;2024-02-23T13:22:25;11.40;87.70
38488;DHT22;57384;51.986;4.458;2024-02-23T13:24:57;11.40;87.70
38488;DHT22;57384;51.986;4.458;2024-02-23T13:27:30;11.40;87.70
38488;DHT22;57384;51.986;4.458;2024-02-23T13:29:59;11.40;87.60
38488;DHT22;57384;51.986;4.458;2024-02-23T13:32:27;11.40;87.50
38488;DHT22;57384;51.986;4.458;2024-02-23T13:35:10;11.40;87.50
38488;DHT22;57384;51.986;4.458;2024-02-23T13:37:46;11.40;87.50
38488;DHT22;57384;51.986;4.458;2024-02-23T13:43:28;11.40;87.10
38488;DHT22;57384;51.986;4.458;2024-02-23T13:45:56;11.40;87.30
38488;DHT22;57384;51.986;4.458;2024-02-23T13:48:33;11.30;87.70
38488;DHT22;57384;51.986;4.458;2024-02-23T13:51:08;11.30;87.10
38488;DHT22;57384;51.986;4.458;2024-02-23T13:53:36;11.40;87.00
38488;DHT22;57384;51.986;4.458;2024-02-23T13:56:11;11.30;86.90
38488;DHT22;57384;51.986;4.458;2024-02-23T13:58:37;11.30;86.80
38488;DHT22;57384;51.986;4.458;2024-02-23T14:01:04;11.30;86.70
38488;DHT22;57384;51.986;4.458;2024-02-23T14:03:38;11.30;86.60
38488;DHT22;57384;51.986;4.458;2024-02-23T14:06:10;11.30;86.50
38488;DHT22;57384;51.986;4.458;2024-02-23T14:08:39;11.30;86.60
38488;DHT22;57384;51.986;4.458;2024-02-23T14:11:06;11.30;86.60
38488;DHT22;57384;51.986;4.458;2024-02-23T14:13:34;11.30;86.80
38488;DHT22;57384;51.986;4.458;2024-02-23T14:16:00;11.30;86.90
38488;DHT22;57384;51.986;4.458;2024-02-23T14:18:29;11.20;86.80
38488;DHT22;57384;51.986;4.458;2024-02-23T14:20:56;11.20;86.80
38488;DHT22;57384;51.986;4.458;2024-02-23T14:23:22;11.20;86.70
38488;DHT22;57384;51.986;4.458;2024-02-23T14:25:49;11.20;86.70
38488;DHT22;57384;51.986;4.458;2024-02-23T14:28:16;11.20;86.50
38488;DHT22;57384;51.986;4.458;2024-02-23T14:30:49;11.20;86.70
38488;DHT22;57384;51.986;4.458;2024-02-23T14:33:16;11.10;86.50
38488;DHT22;57384;51.986;4.458;2024-02-23T14:35:42;11.10;86.60
38488;DHT22;57384;51.986;4.458;2024-02-23T14:38:10;11.10;86.50
38488;DHT22;57384;51.986;4.458;2024-02-23T14:40:39;11.10;86.70
38488;DHT22;57384;51.986;4.458;2024-02-23T14:43:09;11.10;86.70
38488;DHT22;57384;51.986;4.458;2024-02-23T14:45:37;11.00;86.60
38488;DHT22;57384;51.986;4.458;2024-02-23T14:48:03;11.00;86.50
38488;DHT22;57384;51.986;4.458;2024-02-23T14:50:36;11.00;86.40
38488;DHT22;57384;51.986;4.458;2024-02-23T14:53:06;11.00;86.30
38488;DHT22;57384;51.986;4.458;2024-02-23T14:55:35;11.00;86.30
38488;DHT22;57384;51.986;4.458;2024-02-23T14:58:02;11.00;86.10
38488;DHT22;57384;51.986;4.458;2024-02-23T15:00:34;11.00;86.10
38488;DHT22;57384;51.986;4.458;2024-02-23T15:03:02;11.00;85.90
38488;DHT22;57384;51.986;4.458;2024-02-23T15:05:30;11.00;85.90
38488;DHT22;57384;51.986;4.458;2024-02-23T15:07:58;11.00;85.80
38488;DHT22;57384;51.986;4.458;2024-02-23T15:10:26;11.00;86.00
38488;DHT22;57384;51.986;4.458;2024-02-23T15:12:53;11.00;85.90
38488;DHT22;57384;51.986;4.458;2024-02-23T15:15:20;10.90;86.50
38488;DHT22;57384;51.986;4.458;2024-02-23T15:17:47;10.90;85.80
38488;DHT22;57384;51.986;4.458;2024-02-23T15:20:14;10.90;85.70
38488;DHT22;57384;51.986;4.458;2024-02-23T15:22:41;10.90;85.60
38488;DHT22;57384;51.986;4.458;2024-02-23T15:25:16;10.90;85.50
38488;DHT22;57384;51.986;4.458;2024-02-23T15:27:43;11.00;85.40
38488;DHT22;57384;51.986;4.458;2024-02-23T15:30:10;10.90;85.50
38488;DHT22;57384;51.986;4.458;2024-02-23T15:32:37;10.80;85.40
38488;DHT22;57384;51.986;4.458;2024-02-23T15:35:09;10.80;85.40
38488;DHT22;57384;51.986;4.458;2024-02-23T15:37:36;10.90;85.40
38488;DHT22;57384;51.986;4.458;2024-02-23T15:40:03;10.80;85.20
38488;DHT22;57384;51.986;4.458;2024-02-23T15:42:31;10.80;85.50
38488;DHT22;57384;51.986;4.458;2024-02-23T15:44:58;10.80;85.50
38488;DHT22;57384;51.986;4.458;2024-02-23T15:47:26;10.80;85.50
38488;DHT22;57384;51.986;4.458;2024-02-23T15:49:53;10.70;85.40
38488;DHT22;57384;51.986;4.458;2024-02-23T15:52:20;10.70;85.30
38488;DHT22;57384;51.986;4.458;2024-02-23T15:54:47;10.70;85.30
38488;DHT22;57384;51.986;4.458;2024-02-23T15:57:22;10.70;85.30
38488;DHT22;57384;51.986;4.458;2024-02-23T15:59:49;10.70;85.10
38488;DHT22;57384;51.986;4.458;2024-02-23T16:02:17;10.70;85.20
38488;DHT22;57384;51.986;4.458;2024-02-23T16:04:43;10.60;85.10
38488;DHT22;57384;51.986;4.458;2024-02-23T16:07:11;10.60;85.10
38488;DHT22;57384;51.986;4.458;2024-02-23T16:09:38;10.60;85.00
38488;DHT22;57384;51.986;4.458;2024-02-23T16:12:19;10.60;84.90
38488;DHT22;57384;51.986;4.458;2024-02-23T16:14:53;10.60;84.90
38488;DHT22;57384;51.986;4.458;2024-02-23T16:17:21;10.50;84.70
38488;DHT22;57384;51.986;4.458;2024-02-23T16:19:47;10.60;84.80
38488;DHT22;57384;51.986;4.458;2024-02-23T16:22:14;10.50;84.70
38488;DHT22;57384;51.986;4.458;2024-02-23T16:24:42;10.50;84.70
38488;DHT22;57384;51.986;4.458;2024-02-23T16:27:16;10.50;84.70
38488;DHT22;57384;51.986;4.458;2024-02-23T16:29:49;10.50;84.60
38488;DHT22;57384;51.986;4.458;2024-02-23T16:32:25;10.40;84.50
38488;DHT22;57384;51.986;4.458;2024-02-23T16:34:56;10.40;84.60
38488;DHT22;57384;51.986;4.458;2024-02-23T16:37:22;10.40;84.60
38488;DHT22;57384;51.986;4.458;2024-02-23T16:39:49;10.40;84.70
38488;DHT22;57384;51.986;4.458;2024-02-23T16:42:20;10.40;84.70
38488;DHT22;57384;51.986;4.458;2024-02-23T16:44:49;10.30;84.60
38488;DHT22;57384;51.986;4.458;2024-02-23T16:47:16;10.30;84.60
38488;DHT22;57384;51.986;4.458;2024-02-23T16:49:45;10.30;84.50
38488;DHT22;57384;51.986;4.458;2024-02-23T16:52:12;10.30;84.40
38488;DHT22;57384;51.986;4.458;2024-02-23T16:54:41;10.20;84.40
38488;DHT22;57384;51.986;4.458;2024-02-23T16:57:15;10.20;84.40
38488;DHT22;57384;51.986;4.458;2024-02-23T16:59:42;10.20;84.40
38488;DHT22;57384;51.986;4.458;2024-02-23T17:02:08;10.20;84.50
38488;DHT22;57384;51.986;4.458;2024-02-23T17:04:35;10.10;84.50
38488;DHT22;57384;51.986;4.458;2024-02-23T17:07:04;10.10;84.50
38488;DHT22;57384;51.986;4.458;2024-02-23T17:09:31;10.10;84.60
38488;DHT22;57384;51.986;4.458;2024-02-23T17:12:05;10.00;84.50
38488;DHT22;57384;51.986;4.458;2024-02-23T17:14:32;10.00;84.50
38488;DHT22;57384;51.986;4.458;2024-02-23T17:16:59;10.00;84.60